sensor_id;sensor_type;location;lat;lon;timestamp;P1;durP1;ratioP1;P2;durP2;ratioP2
17177;SDS011;8704;52.006;4.374;2023-10-31T00:02:04;16.75;;;8.10;;
17177;SDS011;8704;52.006;4.374;2023-10-31T00:04:32;15.18;;;8.13;;
17177;SDS011;8704;52.006;4.374;2023-10-31T00:07:00;13.40;;;7.53;;
17177;SDS011;8704;52.006;4.374;2023-10-31T00:09:29;15.18;;;7.93;;
17177;SDS011;8704;52.006;4.374;2023-10-31T00:11:57;17.38;;;8.98;;
17177;SDS011;8704;52.006;4.374;2023-10-31T00:14:27;12.88;;;8.55;;
17177;SDS011;8704;52.006;4.374;2023-10-31T00:16:57;10.38;;;9.07;;
17177;SDS011;8704;52.006;4.374;2023-10-31T00:19:25;15.43;;;8.73;;
17177;SDS011;8704;52.006;4.374;2023-10-31T00:21:53;10.07;;;8.55;;
17177;SDS011;8704;52.006;4.374;2023-10-31T00:24:21;10.55;;;8.90;;
17177;SDS011;8704;52.006;4.374;2023-10-31T00:26:49;15.55;;;10.38;;
17177;SDS011;8704;52.006;4.374;2023-10-31T00:29:17;15.23;;;11.13;;
17177;SDS011;8704;52.006;4.374;2023-10-31T00:31:47;12.25;;;11.00;;
17177;SDS011;8704;52.006;4.374;2023-10-31T00:34:15;19.95;;;11.85;;
17177;SDS011;8704;52.006;4.374;2023-10-31T00:36:44;18.50;;;12.98;;
17177;SDS011;8704;52.006;4.374;2023-10-31T00:39:12;16.10;;;12.63;;
17177;SDS011;8704;52.006;4.374;2023-10-31T00:41:43;13.77;;;11.63;;
17177;SDS011;8704;52.006;4.374;2023-10-31T00:44:12;21.02;;;16.75;;
17177;SDS011;8704;52.006;4.374;2023-10-31T00:46:40;16.27;;;12.48;;
17177;SDS011;8704;52.006;4.374;2023-10-31T00:49:11;18.05;;;13.32;;
17177;SDS011;8704;52.006;4.374;2023-10-31T00:51:39;14.18;;;12.70;;
17177;SDS011;8704;52.006;4.374;2023-10-31T00:54:07;12.60;;;11.40;;
17177;SDS011;8704;52.006;4.374;2023-10-31T00:56:35;13.70;;;11.27;;
17177;SDS011;8704;52.006;4.374;2023-10-31T00:59:03;14.40;;;11.63;;
17177;SDS011;8704;52.006;4.374;2023-10-31T01:01:31;19.17;;;12.80;;
17177;SDS011;8704;52.006;4.374;2023-10-31T01:03:59;12.95;;;10.85;;
17177;SDS011;8704;52.006;4.374;2023-10-31T01:06:29;14.55;;;11.60;;
17177;SDS011;8704;52.006;4.374;2023-10-31T01:08:57;13.85;;;12.45;;
17177;SDS011;8704;52.006;4.374;2023-10-31T01:11:25;13.63;;;12.20;;
17177;SDS011;8704;52.006;4.374;2023-10-31T01:13:53;13.43;;;12.05;;
17177;SDS011;8704;52.006;4.374;2023-10-31T01:16:21;19.88;;;16.08;;
17177;SDS011;8704;52.006;4.374;2023-10-31T01:18:49;15.77;;;14.35;;
17177;SDS011;8704;52.006;4.374;2023-10-31T01:21:18;17.60;;;13.57;;
17177;SDS011;8704;52.006;4.374;2023-10-31T01:23:47;15.88;;;13.93;;
17177;SDS011;8704;52.006;4.374;2023-10-31T01:26:15;16.23;;;14.73;;
17177;SDS011;8704;52.006;4.374;2023-10-31T01:28:43;18.45;;;16.50;;
17177;SDS011;8704;52.006;4.374;2023-10-31T01:31:11;17.63;;;14.80;;
17177;SDS011;8704;52.006;4.374;2023-10-31T01:33:39;16.88;;;15.10;;
17177;SDS011;8704;52.006;4.374;2023-10-31T01:36:08;15.55;;;14.25;;
17177;SDS011;8704;52.006;4.374;2023-10-31T01:38:38;11.57;;;10.40;;
17177;SDS011;8704;52.006;4.374;2023-10-31T01:41:08;9.75;;;8.85;;
17177;SDS011;8704;52.006;4.374;2023-10-31T01:43:36;8.27;;;7.50;;
17177;SDS011;8704;52.006;4.374;2023-10-31T01:46:05;8.88;;;8.00;;
17177;SDS011;8704;52.006;4.374;2023-10-31T01:48:33;5.85;;;4.97;;
17177;SDS011;8704;52.006;4.374;2023-10-31T01:51:02;7.15;;;6.45;;
17177;SDS011;8704;52.006;4.374;2023-10-31T01:53:31;6.90;;;5.82;;
17177;SDS011;8704;52.006;4.374;2023-10-31T01:56:01;6.95;;;5.70;;
17177;SDS011;8704;52.006;4.374;2023-10-31T01:58:32;5.70;;;5.25;;
17177;SDS011;8704;52.006;4.374;2023-10-31T02:01:03;11.80;;;6.78;;
17177;SDS011;8704;52.006;4.374;2023-10-31T02:03:33;5.75;;;5.25;;
17177;SDS011;8704;52.006;4.374;2023-10-31T02:06:02;8.43;;;6.20;;
17177;SDS011;8704;52.006;4.374;2023-10-31T02:08:30;21.63;;;8.52;;
17177;SDS011;8704;52.006;4.374;2023-10-31T02:10:59;7.93;;;7.10;;
17177;SDS011;8704;52.006;4.374;2023-10-31T02:13:27;7.72;;;6.93;;
17177;SDS011;8704;52.006;4.374;2023-10-31T02:15:56;7.43;;;6.57;;
17177;SDS011;8704;52.006;4.374;2023-10-31T02:18:24;7.30;;;6.60;;
17177;SDS011;8704;52.006;4.374;2023-10-31T02:20:52;9.40;;;7.78;;
17177;SDS011;8704;52.006;4.374;2023-10-31T02:23:22;8.93;;;8.00;;
17177;SDS011;8704;52.006;4.374;2023-10-31T02:25:50;14.85;;;9.32;;
17177;SDS011;8704;52.006;4.374;2023-10-31T02:28:18;10.63;;;6.65;;
17177;SDS011;8704;52.006;4.374;2023-10-31T02:30:46;8.93;;;6.15;;
17177;SDS011;8704;52.006;4.374;2023-10-31T02:33:14;14.85;;;6.40;;
17177;SDS011;8704;52.006;4.374;2023-10-31T02:35:42;7.15;;;5.80;;
17177;SDS011;8704;52.006;4.374;2023-10-31T02:38:10;9.73;;;6.03;;
17177;SDS011;8704;52.006;4.374;2023-10-31T02:40:40;9.60;;;5.20;;
17177;SDS011;8704;52.006;4.374;2023-10-31T02:43:08;6.20;;;4.60;;
17177;SDS011;8704;52.006;4.374;2023-10-31T02:45:36;8.68;;;4.53;;
17177;SDS011;8704;52.006;4.374;2023-10-31T02:48:04;6.30;;;4.60;;
17177;SDS011;8704;52.006;4.374;2023-10-31T02:50:32;7.38;;;4.95;;
17177;SDS011;8704;52.006;4.374;2023-10-31T02:53:00;8.55;;;5.25;;
17177;SDS011;8704;52.006;4.374;2023-10-31T02:55:29;8.07;;;5.22;;
17177;SDS011;8704;52.006;4.374;2023-10-31T02:57:58;8.00;;;4.68;;
17177;SDS011;8704;52.006;4.374;2023-10-31T03:00:26;11.27;;;5.05;;
17177;SDS011;8704;52.006;4.374;2023-10-31T03:02:54;7.30;;;5.03;;
17177;SDS011;8704;52.006;4.374;2023-10-31T03:05:23;6.32;;;5.28;;
17177;SDS011;8704;52.006;4.374;2023-10-31T03:07:51;9.75;;;5.00;;
17177;SDS011;8704;52.006;4.374;2023-10-31T03:10:19;6.47;;;4.10;;
17177;SDS011;8704;52.006;4.374;2023-10-31T03:12:47;4.85;;;3.22;;
17177;SDS011;8704;52.006;4.374;2023-10-31T03:15:16;4.18;;;3.10;;
17177;SDS011;8704;52.006;4.374;2023-10-31T03:17:44;4.28;;;2.92;;
17177;SDS011;8704;52.006;4.374;2023-10-31T03:20:13;4.53;;;3.47;;
17177;SDS011;8704;52.006;4.374;2023-10-31T03:22:41;3.50;;;3.17;;
17177;SDS011;8704;52.006;4.374;2023-10-31T03:25:09;5.32;;;3.35;;
17177;SDS011;8704;52.006;4.374;2023-10-31T03:27:37;4.45;;;3.92;;
17177;SDS011;8704;52.006;4.374;2023-10-31T03:30:05;5.68;;;4.57;;
17177;SDS011;8704;52.006;4.374;2023-10-31T03:32:35;6.20;;;5.60;;
17177;SDS011;8704;52.006;4.374;2023-10-31T03:35:04;9.68;;;5.47;;
17177;SDS011;8704;52.006;4.374;2023-10-31T03:37:32;5.80;;;5.05;;
17177;SDS011;8704;52.006;4.374;2023-10-31T03:40:02;8.88;;;5.38;;
17177;SDS011;8704;52.006;4.374;2023-10-31T03:42:31;7.18;;;5.80;;
17177;SDS011;8704;52.006;4.374;2023-10-31T03:44:59;5.60;;;5.00;;
17177;SDS011;8704;52.006;4.374;2023-10-31T03:47:27;10.60;;;5.60;;
17177;SDS011;8704;52.006;4.374;2023-10-31T03:49:56;6.03;;;5.40;;
17177;SDS011;8704;52.006;4.374;2023-10-31T03:52:24;9.00;;;6.63;;
17177;SDS011;8704;52.006;4.374;2023-10-31T03:54:52;9.82;;;6.20;;
17177;SDS011;8704;52.006;4.374;2023-10-31T03:57:21;7.72;;;6.32;;
17177;SDS011;8704;52.006;4.374;2023-10-31T03:59:49;8.35;;;6.20;;
17177;SDS011;8704;52.006;4.374;2023-10-31T04:02:17;6.78;;;5.63;;
17177;SDS011;8704;52.006;4.374;2023-10-31T04:04:46;6.72;;;5.82;;
17177;SDS011;8704;52.006;4.374;2023-10-31T04:07:15;6.55;;;5.93;;
17177;SDS011;8704;52.006;4.374;2023-10-31T04:09:43;6.35;;;5.75;;
17177;SDS011;8704;52.006;4.374;2023-10-31T04:12:11;7.47;;;5.93;;
17177;SDS011;8704;52.006;4.374;2023-10-31T04:14:39;6.88;;;6.15;;
17177;SDS011;8704;52.006;4.374;2023-10-31T04:17:07;9.10;;;6.30;;
17177;SDS011;8704;52.006;4.374;2023-10-31T04:19:36;6.22;;;5.40;;
17177;SDS011;8704;52.006;4.374;2023-10-31T04:22:04;8.10;;;6.90;;
17177;SDS011;8704;52.006;4.374;2023-10-31T04:24:34;7.72;;;6.32;;
17177;SDS011;8704;52.006;4.374;2023-10-31T04:27:02;7.18;;;6.38;;
17177;SDS011;8704;52.006;4.374;2023-10-31T04:29:30;7.43;;;5.60;;
17177;SDS011;8704;52.006;4.374;2023-10-31T04:31:58;9.85;;;5.10;;
17177;SDS011;8704;52.006;4.374;2023-10-31T04:34:26;8.70;;;5.55;;
17177;SDS011;8704;52.006;4.374;2023-10-31T04:36:54;7.43;;;5.05;;
17177;SDS011;8704;52.006;4.374;2023-10-31T04:39:22;5.78;;;5.28;;
17177;SDS011;8704;52.006;4.374;2023-10-31T04:41:52;6.32;;;5.00;;
17177;SDS011;8704;52.006;4.374;2023-10-31T04:44:20;11.25;;;6.05;;
17177;SDS011;8704;52.006;4.374;2023-10-31T04:46:48;7.93;;;6.03;;
17177;SDS011;8704;52.006;4.374;2023-10-31T04:49:16;7.88;;;5.18;;
17177;SDS011;8704;52.006;4.374;2023-10-31T04:51:44;10.45;;;4.95;;
17177;SDS011;8704;52.006;4.374;2023-10-31T04:54:12;9.10;;;5.05;;
17177;SDS011;8704;52.006;4.374;2023-10-31T04:56:40;6.85;;;4.68;;
17177;SDS011;8704;52.006;4.374;2023-10-31T04:59:10;6.00;;;4.80;;
17177;SDS011;8704;52.006;4.374;2023-10-31T05:01:38;7.90;;;5.30;;
17177;SDS011;8704;52.006;4.374;2023-10-31T05:04:06;7.40;;;4.63;;
17177;SDS011;8704;52.006;4.374;2023-10-31T05:06:38;7.20;;;5.03;;
17177;SDS011;8704;52.006;4.374;2023-10-31T05:09:07;10.57;;;4.80;;
17177;SDS011;8704;52.006;4.374;2023-10-31T05:11:37;8.25;;;5.43;;
17177;SDS011;8704;52.006;4.374;2023-10-31T05:14:07;7.90;;;5.82;;
17177;SDS011;8704;52.006;4.374;2023-10-31T05:16:41;9.80;;;6.53;;
17177;SDS011;8704;52.006;4.374;2023-10-31T05:19:10;6.85;;;5.60;;
17177;SDS011;8704;52.006;4.374;2023-10-31T05:21:38;14.48;;;6.35;;
17177;SDS011;8704;52.006;4.374;2023-10-31T05:24:06;7.53;;;6.72;;
17177;SDS011;8704;52.006;4.374;2023-10-31T05:26:35;8.90;;;6.63;;
17177;SDS011;8704;52.006;4.374;2023-10-31T05:29:03;10.18;;;7.07;;
17177;SDS011;8704;52.006;4.374;2023-10-31T05:31:31;12.25;;;6.70;;
17177;SDS011;8704;52.006;4.374;2023-10-31T05:34:00;13.77;;;6.28;;
17177;SDS011;8704;52.006;4.374;2023-10-31T05:36:30;9.25;;;6.13;;
17177;SDS011;8704;52.006;4.374;2023-10-31T05:38:58;5.97;;;5.43;;
17177;SDS011;8704;52.006;4.374;2023-10-31T05:41:26;6.80;;;6.20;;
17177;SDS011;8704;52.006;4.374;2023-10-31T05:43:54;9.63;;;6.30;;
17177;SDS011;8704;52.006;4.374;2023-10-31T05:46:22;9.90;;;6.55;;
17177;SDS011;8704;52.006;4.374;2023-10-31T05:48:50;10.05;;;6.13;;
17177;SDS011;8704;52.006;4.374;2023-10-31T05:51:19;7.93;;;7.13;;
17177;SDS011;8704;52.006;4.374;2023-10-31T05:53:48;8.07;;;6.40;;
17177;SDS011;8704;52.006;4.374;2023-10-31T05:56:16;10.25;;;6.32;;
17177;SDS011;8704;52.006;4.374;2023-10-31T05:58:44;7.00;;;6.30;;
17177;SDS011;8704;52.006;4.374;2023-10-31T06:01:12;6.95;;;6.18;;
17177;SDS011;8704;52.006;4.374;2023-10-31T06:03:41;8.90;;;6.47;;
17177;SDS011;8704;52.006;4.374;2023-10-31T06:06:10;6.53;;;5.95;;
17177;SDS011;8704;52.006;4.374;2023-10-31T06:08:40;8.07;;;6.03;;
17177;SDS011;8704;52.006;4.374;2023-10-31T06:11:09;6.82;;;6.20;;
17177;SDS011;8704;52.006;4.374;2023-10-31T06:13:39;9.93;;;6.50;;
17177;SDS011;8704;52.006;4.374;2023-10-31T06:16:07;7.22;;;6.55;;
17177;SDS011;8704;52.006;4.374;2023-10-31T06:18:35;7.45;;;6.63;;
17177;SDS011;8704;52.006;4.374;2023-10-31T06:21:05;8.50;;;7.30;;
17177;SDS011;8704;52.006;4.374;2023-10-31T06:23:35;6.32;;;5.82;;
17177;SDS011;8704;52.006;4.374;2023-10-31T06:26:05;12.98;;;8.27;;
17177;SDS011;8704;52.006;4.374;2023-10-31T06:28:33;7.43;;;6.65;;
17177;SDS011;8704;52.006;4.374;2023-10-31T06:31:10;8.23;;;7.28;;
17177;SDS011;8704;52.006;4.374;2023-10-31T06:33:39;11.35;;;6.78;;
17177;SDS011;8704;52.006;4.374;2023-10-31T06:36:07;7.85;;;6.80;;
17177;SDS011;8704;52.006;4.374;2023-10-31T06:38:36;10.57;;;7.70;;
17177;SDS011;8704;52.006;4.374;2023-10-31T06:41:05;7.10;;;6.60;;
17177;SDS011;8704;52.006;4.374;2023-10-31T06:43:33;7.38;;;6.60;;
17177;SDS011;8704;52.006;4.374;2023-10-31T06:46:02;8.07;;;7.30;;
17177;SDS011;8704;52.006;4.374;2023-10-31T06:48:31;11.10;;;7.78;;
17177;SDS011;8704;52.006;4.374;2023-10-31T06:51:00;9.43;;;8.45;;
17177;SDS011;8704;52.006;4.374;2023-10-31T06:53:28;11.48;;;10.23;;
17177;SDS011;8704;52.006;4.374;2023-10-31T06:55:56;12.02;;;10.40;;
17177;SDS011;8704;52.006;4.374;2023-10-31T06:58:25;14.40;;;12.95;;
17177;SDS011;8704;52.006;4.374;2023-10-31T07:00:53;15.48;;;14.07;;
17177;SDS011;8704;52.006;4.374;2023-10-31T07:03:24;15.15;;;13.93;;
17177;SDS011;8704;52.006;4.374;2023-10-31T07:05:52;17.08;;;14.57;;
17177;SDS011;8704;52.006;4.374;2023-10-31T07:08:22;16.95;;;13.60;;
17177;SDS011;8704;52.006;4.374;2023-10-31T07:10:50;15.18;;;13.63;;
17177;SDS011;8704;52.006;4.374;2023-10-31T07:13:18;15.73;;;14.30;;
17177;SDS011;8704;52.006;4.374;2023-10-31T07:15:48;16.95;;;12.98;;
17177;SDS011;8704;52.006;4.374;2023-10-31T07:18:16;16.35;;;14.75;;
17177;SDS011;8704;52.006;4.374;2023-10-31T07:20:44;16.30;;;14.65;;
17177;SDS011;8704;52.006;4.374;2023-10-31T07:23:12;16.08;;;14.40;;
17177;SDS011;8704;52.006;4.374;2023-10-31T07:25:40;16.65;;;15.00;;
17177;SDS011;8704;52.006;4.374;2023-10-31T07:28:09;18.17;;;16.58;;
17177;SDS011;8704;52.006;4.374;2023-10-31T07:30:38;20.92;;;16.23;;
17177;SDS011;8704;52.006;4.374;2023-10-31T07:33:07;18.00;;;16.15;;
17177;SDS011;8704;52.006;4.374;2023-10-31T07:35:35;19.30;;;16.05;;
17177;SDS011;8704;52.006;4.374;2023-10-31T07:38:03;18.17;;;16.38;;
17177;SDS011;8704;52.006;4.374;2023-10-31T07:40:31;17.60;;;15.55;;
17177;SDS011;8704;52.006;4.374;2023-10-31T07:43:00;19.25;;;16.98;;
17177;SDS011;8704;52.006;4.374;2023-10-31T07:45:28;18.55;;;16.40;;
17177;SDS011;8704;52.006;4.374;2023-10-31T07:47:57;16.58;;;15.15;;
17177;SDS011;8704;52.006;4.374;2023-10-31T07:50:27;15.52;;;13.93;;
17177;SDS011;8704;52.006;4.374;2023-10-31T07:52:59;21.45;;;14.75;;
17177;SDS011;8704;52.006;4.374;2023-10-31T07:55:27;16.30;;;14.52;;
17177;SDS011;8704;52.006;4.374;2023-10-31T07:57:54;16.50;;;13.23;;
17177;SDS011;8704;52.006;4.374;2023-10-31T08:00:22;16.13;;;13.82;;
17177;SDS011;8704;52.006;4.374;2023-10-31T08:02:51;18.30;;;13.75;;
17177;SDS011;8704;52.006;4.374;2023-10-31T08:05:22;21.52;;;13.43;;
17177;SDS011;8704;52.006;4.374;2023-10-31T08:07:51;21.25;;;15.95;;
17177;SDS011;8704;52.006;4.374;2023-10-31T08:10:19;18.02;;;16.35;;
17177;SDS011;8704;52.006;4.374;2023-10-31T08:12:47;22.08;;;19.35;;
17177;SDS011;8704;52.006;4.374;2023-10-31T08:15:15;24.65;;;20.70;;
17177;SDS011;8704;52.006;4.374;2023-10-31T08:17:43;27.27;;;24.60;;
17177;SDS011;8704;52.006;4.374;2023-10-31T08:20:12;30.95;;;27.98;;
17177;SDS011;8704;52.006;4.374;2023-10-31T08:22:40;31.60;;;27.83;;
17177;SDS011;8704;52.006;4.374;2023-10-31T08:25:11;35.10;;;31.35;;
17177;SDS011;8704;52.006;4.374;2023-10-31T08:27:39;38.90;;;35.15;;
17177;SDS011;8704;52.006;4.374;2023-10-31T08:30:07;38.78;;;34.95;;
17177;SDS011;8704;52.006;4.374;2023-10-31T08:32:36;37.90;;;34.13;;
17177;SDS011;8704;52.006;4.374;2023-10-31T08:35:04;35.78;;;32.40;;
17177;SDS011;8704;52.006;4.374;2023-10-31T08:37:32;35.65;;;32.08;;
17177;SDS011;8704;52.006;4.374;2023-10-31T08:40:00;36.83;;;33.35;;
17177;SDS011;8704;52.006;4.374;2023-10-31T08:42:31;36.00;;;32.65;;
17177;SDS011;8704;52.006;4.374;2023-10-31T08:44:59;40.28;;;34.88;;
17177;SDS011;8704;52.006;4.374;2023-10-31T08:47:27;41.88;;;33.50;;
17177;SDS011;8704;52.006;4.374;2023-10-31T08:49:55;34.90;;;31.27;;
17177;SDS011;8704;52.006;4.374;2023-10-31T08:52:23;36.63;;;32.15;;
17177;SDS011;8704;52.006;4.374;2023-10-31T08:54:51;31.65;;;28.55;;
17177;SDS011;8704;52.006;4.374;2023-10-31T08:57:19;30.95;;;26.85;;
17177;SDS011;8704;52.006;4.374;2023-10-31T08:59:49;28.52;;;25.33;;
17177;SDS011;8704;52.006;4.374;2023-10-31T09:02:16;26.08;;;23.42;;
17177;SDS011;8704;52.006;4.374;2023-10-31T09:04:45;22.98;;;20.60;;
17177;SDS011;8704;52.006;4.374;2023-10-31T09:07:13;23.10;;;18.48;;
17177;SDS011;8704;52.006;4.374;2023-10-31T09:09:41;17.98;;;16.08;;
17177;SDS011;8704;52.006;4.374;2023-10-31T09:12:10;18.48;;;16.30;;
17177;SDS011;8704;52.006;4.374;2023-10-31T09:14:38;19.13;;;14.35;;
17177;SDS011;8704;52.006;4.374;2023-10-31T09:17:09;18.75;;;11.75;;
17177;SDS011;8704;52.006;4.374;2023-10-31T09:19:37;16.80;;;11.20;;
17177;SDS011;8704;52.006;4.374;2023-10-31T09:22:05;13.38;;;10.73;;
17177;SDS011;8704;52.006;4.374;2023-10-31T09:24:33;15.38;;;10.32;;
17177;SDS011;8704;52.006;4.374;2023-10-31T09:27:01;13.40;;;10.45;;
17177;SDS011;8704;52.006;4.374;2023-10-31T09:29:29;15.25;;;11.02;;
17177;SDS011;8704;52.006;4.374;2023-10-31T09:31:58;19.95;;;12.93;;
17177;SDS011;8704;52.006;4.374;2023-10-31T09:34:27;17.80;;;11.63;;
17177;SDS011;8704;52.006;4.374;2023-10-31T09:36:55;18.38;;;12.18;;
17177;SDS011;8704;52.006;4.374;2023-10-31T09:39:23;23.10;;;13.30;;
17177;SDS011;8704;52.006;4.374;2023-10-31T09:41:51;19.83;;;12.80;;
17177;SDS011;8704;52.006;4.374;2023-10-31T09:44:20;22.25;;;12.40;;
17177;SDS011;8704;52.006;4.374;2023-10-31T09:46:49;18.67;;;14.80;;
17177;SDS011;8704;52.006;4.374;2023-10-31T09:49:19;19.52;;;12.82;;
17177;SDS011;8704;52.006;4.374;2023-10-31T09:51:49;18.25;;;11.70;;
17177;SDS011;8704;52.006;4.374;2023-10-31T09:54:17;18.48;;;13.20;;
17177;SDS011;8704;52.006;4.374;2023-10-31T09:56:46;16.77;;;13.65;;
17177;SDS011;8704;52.006;4.374;2023-10-31T09:59:14;21.40;;;13.45;;
17177;SDS011;8704;52.006;4.374;2023-10-31T10:01:43;21.85;;;14.32;;
17177;SDS011;8704;52.006;4.374;2023-10-31T10:04:11;20.52;;;14.27;;
17177;SDS011;8704;52.006;4.374;2023-10-31T10:06:40;25.98;;;16.63;;
17177;SDS011;8704;52.006;4.374;2023-10-31T10:09:19;31.75;;;16.45;;
17177;SDS011;8704;52.006;4.374;2023-10-31T10:11:49;23.15;;;15.10;;
17177;SDS011;8704;52.006;4.374;2023-10-31T10:14:22;22.57;;;14.13;;
17177;SDS011;8704;52.006;4.374;2023-10-31T10:16:50;22.92;;;15.88;;
17177;SDS011;8704;52.006;4.374;2023-10-31T10:19:19;23.67;;;16.00;;
17177;SDS011;8704;52.006;4.374;2023-10-31T10:21:48;22.65;;;17.55;;
17177;SDS011;8704;52.006;4.374;2023-10-31T10:24:21;27.33;;;16.92;;
17177;SDS011;8704;52.006;4.374;2023-10-31T10:26:51;26.08;;;16.02;;
17177;SDS011;8704;52.006;4.374;2023-10-31T10:29:19;27.40;;;14.30;;
17177;SDS011;8704;52.006;4.374;2023-10-31T10:31:47;23.20;;;15.32;;
17177;SDS011;8704;52.006;4.374;2023-10-31T10:34:16;24.85;;;15.32;;
17177;SDS011;8704;52.006;4.374;2023-10-31T10:36:46;20.75;;;17.20;;
17177;SDS011;8704;52.006;4.374;2023-10-31T10:39:16;23.42;;;13.95;;
17177;SDS011;8704;52.006;4.374;2023-10-31T10:41:51;26.83;;;14.15;;
17177;SDS011;8704;52.006;4.374;2023-10-31T10:44:23;26.10;;;13.65;;
17177;SDS011;8704;52.006;4.374;2023-10-31T10:46:58;28.27;;;13.68;;
17177;SDS011;8704;52.006;4.374;2023-10-31T10:49:32;19.48;;;13.27;;
17177;SDS011;8704;52.006;4.374;2023-10-31T10:54:37;20.88;;;12.57;;
17177;SDS011;8704;52.006;4.374;2023-10-31T10:57:14;19.38;;;12.93;;
17177;SDS011;8704;52.006;4.374;2023-10-31T10:59:49;20.77;;;11.82;;
17177;SDS011;8704;52.006;4.374;2023-10-31T11:02:23;19.13;;;11.85;;
17177;SDS011;8704;52.006;4.374;2023-10-31T11:04:53;16.90;;;12.40;;
17177;SDS011;8704;52.006;4.374;2023-10-31T11:07:22;22.65;;;14.40;;
17177;SDS011;8704;52.006;4.374;2023-10-31T11:09:53;23.80;;;19.60;;
17177;SDS011;8704;52.006;4.374;2023-10-31T11:12:23;25.52;;;20.75;;
17177;SDS011;8704;52.006;4.374;2023-10-31T11:14:52;27.33;;;23.13;;
17177;SDS011;8704;52.006;4.374;2023-10-31T11:17:22;31.13;;;24.73;;
17177;SDS011;8704;52.006;4.374;2023-10-31T11:19:52;30.95;;;23.77;;
17177;SDS011;8704;52.006;4.374;2023-10-31T11:22:22;28.00;;;24.95;;
17177;SDS011;8704;52.006;4.374;2023-10-31T11:24:51;29.70;;;26.27;;
17177;SDS011;8704;52.006;4.374;2023-10-31T11:27:19;28.02;;;23.65;;
17177;SDS011;8704;52.006;4.374;2023-10-31T11:29:48;26.65;;;23.17;;
17177;SDS011;8704;52.006;4.374;2023-10-31T11:32:16;30.75;;;22.95;;
17177;SDS011;8704;52.006;4.374;2023-10-31T11:34:44;23.42;;;18.75;;
17177;SDS011;8704;52.006;4.374;2023-10-31T11:37:22;22.08;;;18.27;;
17177;SDS011;8704;52.006;4.374;2023-10-31T11:42:48;19.85;;;16.80;;
17177;SDS011;8704;52.006;4.374;2023-10-31T11:45:26;22.63;;;17.73;;
17177;SDS011;8704;52.006;4.374;2023-10-31T11:47:55;20.33;;;17.63;;
17177;SDS011;8704;52.006;4.374;2023-10-31T11:50:24;24.02;;;17.00;;
17177;SDS011;8704;52.006;4.374;2023-10-31T11:52:59;20.25;;;16.90;;
17177;SDS011;8704;52.006;4.374;2023-10-31T11:55:31;22.02;;;16.73;;
17177;SDS011;8704;52.006;4.374;2023-10-31T11:58:17;23.80;;;16.75;;
17177;SDS011;8704;52.006;4.374;2023-10-31T12:00:49;18.02;;;16.00;;
17177;SDS011;8704;52.006;4.374;2023-10-31T12:03:18;21.38;;;16.23;;
17177;SDS011;8704;52.006;4.374;2023-10-31T12:05:51;20.35;;;17.50;;
17177;SDS011;8704;52.006;4.374;2023-10-31T12:08:24;25.75;;;18.52;;
17177;SDS011;8704;52.006;4.374;2023-10-31T12:11:05;22.60;;;19.10;;
17177;SDS011;8704;52.006;4.374;2023-10-31T12:13:35;22.05;;;19.50;;
17177;SDS011;8704;52.006;4.374;2023-10-31T12:16:06;23.98;;;21.60;;
17177;SDS011;8704;52.006;4.374;2023-10-31T12:18:36;27.17;;;24.35;;
17177;SDS011;8704;52.006;4.374;2023-10-31T12:21:06;30.60;;;26.33;;
17177;SDS011;8704;52.006;4.374;2023-10-31T12:23:35;31.38;;;27.95;;
17177;SDS011;8704;52.006;4.374;2023-10-31T12:26:03;28.80;;;25.40;;
17177;SDS011;8704;52.006;4.374;2023-10-31T12:28:31;33.50;;;29.92;;
17177;SDS011;8704;52.006;4.374;2023-10-31T12:30:59;34.97;;;30.15;;
17177;SDS011;8704;52.006;4.374;2023-10-31T12:33:31;36.00;;;31.17;;
17177;SDS011;8704;52.006;4.374;2023-10-31T12:35:59;37.05;;;31.95;;
17177;SDS011;8704;52.006;4.374;2023-10-31T12:38:28;39.45;;;33.55;;
17177;SDS011;8704;52.006;4.374;2023-10-31T12:40:57;38.60;;;34.40;;
17177;SDS011;8704;52.006;4.374;2023-10-31T12:43:26;40.58;;;36.15;;
17177;SDS011;8704;52.006;4.374;2023-10-31T12:45:55;40.30;;;34.83;;
17177;SDS011;8704;52.006;4.374;2023-10-31T12:48:23;41.13;;;35.55;;
17177;SDS011;8704;52.006;4.374;2023-10-31T12:51:06;41.60;;;36.45;;
17177;SDS011;8704;52.006;4.374;2023-10-31T12:53:35;44.30;;;36.95;;
17177;SDS011;8704;52.006;4.374;2023-10-31T12:56:03;40.85;;;35.90;;
17177;SDS011;8704;52.006;4.374;2023-10-31T12:58:32;41.78;;;35.05;;
17177;SDS011;8704;52.006;4.374;2023-10-31T13:01:00;39.50;;;35.28;;
17177;SDS011;8704;52.006;4.374;2023-10-31T13:03:28;38.58;;;34.50;;
17177;SDS011;8704;52.006;4.374;2023-10-31T13:05:57;36.08;;;32.47;;
17177;SDS011;8704;52.006;4.374;2023-10-31T13:08:26;37.35;;;33.00;;
17177;SDS011;8704;52.006;4.374;2023-10-31T13:10:56;36.03;;;32.28;;
17177;SDS011;8704;52.006;4.374;2023-10-31T13:13:24;34.28;;;30.35;;
17177;SDS011;8704;52.006;4.374;2023-10-31T13:15:52;35.08;;;31.33;;
17177;SDS011;8704;52.006;4.374;2023-10-31T13:18:20;31.08;;;27.73;;
17177;SDS011;8704;52.006;4.374;2023-10-31T13:20:48;29.15;;;26.00;;
17177;SDS011;8704;52.006;4.374;2023-10-31T13:23:16;29.52;;;24.83;;
17177;SDS011;8704;52.006;4.374;2023-10-31T13:25:48;26.23;;;23.52;;
17177;SDS011;8704;52.006;4.374;2023-10-31T13:28:16;25.45;;;22.80;;
17177;SDS011;8704;52.006;4.374;2023-10-31T13:30:44;24.38;;;21.98;;
17177;SDS011;8704;52.006;4.374;2023-10-31T13:33:13;24.98;;;22.33;;
17177;SDS011;8704;52.006;4.374;2023-10-31T13:35:41;25.77;;;22.00;;
17177;SDS011;8704;52.006;4.374;2023-10-31T13:38:09;24.27;;;21.70;;
17177;SDS011;8704;52.006;4.374;2023-10-31T13:40:37;24.60;;;22.05;;
17177;SDS011;8704;52.006;4.374;2023-10-31T13:43:08;27.27;;;22.30;;
17177;SDS011;8704;52.006;4.374;2023-10-31T13:45:36;25.92;;;20.05;;
17177;SDS011;8704;52.006;4.374;2023-10-31T13:48:04;23.27;;;20.75;;
17177;SDS011;8704;52.006;4.374;2023-10-31T13:50:33;22.27;;;19.77;;
17177;SDS011;8704;52.006;4.374;2023-10-31T13:53:01;24.67;;;22.08;;
17177;SDS011;8704;52.006;4.374;2023-10-31T13:55:31;24.52;;;21.23;;
17177;SDS011;8704;52.006;4.374;2023-10-31T13:57:59;23.13;;;20.83;;
17177;SDS011;8704;52.006;4.374;2023-10-31T14:00:28;21.88;;;19.42;;
17177;SDS011;8704;52.006;4.374;2023-10-31T14:02:56;22.73;;;19.00;;
17177;SDS011;8704;52.006;4.374;2023-10-31T14:05:25;21.55;;;18.45;;
17177;SDS011;8704;52.006;4.374;2023-10-31T14:07:53;20.95;;;18.80;;
17177;SDS011;8704;52.006;4.374;2023-10-31T14:10:21;21.60;;;19.45;;
17177;SDS011;8704;52.006;4.374;2023-10-31T14:12:50;21.55;;;18.95;;
17177;SDS011;8704;52.006;4.374;2023-10-31T14:15:18;22.50;;;20.15;;
17177;SDS011;8704;52.006;4.374;2023-10-31T14:17:50;22.13;;;19.88;;
17177;SDS011;8704;52.006;4.374;2023-10-31T14:20:18;24.73;;;21.60;;
17177;SDS011;8704;52.006;4.374;2023-10-31T14:22:47;23.95;;;21.23;;
17177;SDS011;8704;52.006;4.374;2023-10-31T14:25:16;21.90;;;19.60;;
17177;SDS011;8704;52.006;4.374;2023-10-31T14:27:44;22.48;;;20.02;;
17177;SDS011;8704;52.006;4.374;2023-10-31T14:30:12;22.80;;;20.60;;
17177;SDS011;8704;52.006;4.374;2023-10-31T14:32:41;23.13;;;20.90;;
17177;SDS011;8704;52.006;4.374;2023-10-31T14:35:10;23.98;;;21.65;;
17177;SDS011;8704;52.006;4.374;2023-10-31T14:37:38;25.83;;;23.17;;
17177;SDS011;8704;52.006;4.374;2023-10-31T14:40:07;25.88;;;23.15;;
17177;SDS011;8704;52.006;4.374;2023-10-31T14:42:35;27.88;;;24.80;;
17177;SDS011;8704;52.006;4.374;2023-10-31T14:45:04;27.40;;;24.70;;
17177;SDS011;8704;52.006;4.374;2023-10-31T14:47:32;29.33;;;26.38;;
17177;SDS011;8704;52.006;4.374;2023-10-31T14:50:00;29.77;;;26.58;;
17177;SDS011;8704;52.006;4.374;2023-10-31T14:52:30;29.70;;;26.60;;
17177;SDS011;8704;52.006;4.374;2023-10-31T14:54:58;30.40;;;26.05;;
17177;SDS011;8704;52.006;4.374;2023-10-31T14:57:26;31.50;;;27.42;;
17177;SDS011;8704;52.006;4.374;2023-10-31T14:59:54;28.77;;;24.83;;